EBLN weather

Liernu ULM
Eghezée, Namur, Belgium

Public forecast

Using degrees Celsius for public forecast. Weather courtesy of forecast.io.

METAR (pilot weather report)

Closest report is Beauvechain Air Base, 10.7 nm (19.9 km) N. Retrieved 2019/04/24 05:25 UTC (17 minutes ago):

EBBE 240525Z 16007KT 9999 FEW100 SCT140 15/09 Q0997 BLU BLU

TAF (pilot weather forecast)

Forecast is more than 12 hours old.

Closest forecast is Beauvechain Air Base, 10.7 nm (19.9 km) N. Retrieved 2019/03/21 19:00 UTC (1 month ago):

TAF TAF EBBE 211541Z 2119/2207 VRB03KT 9999 SCT250 BECMG 2121/2123 4000 BR BKN280 TEMPO 2200/2207 2000 BR TEMPO 2201/2203 0500 FG